sensor_id;sensor_type;location;lat;lon;timestamp;P1;durP1;ratioP1;P2;durP2;ratioP2
4933;SDS011;2482;49.154;8.254;2022-11-15T00:00:17;15.40;;;9.50;;
4933;SDS011;2482;49.154;8.254;2022-11-15T00:02:46;11.43;;;9.10;;
4933;SDS011;2482;49.154;8.254;2022-11-15T00:05:15;12.40;;;9.77;;
4933;SDS011;2482;49.154;8.254;2022-11-15T00:07:43;12.30;;;8.03;;
4933;SDS011;2482;49.154;8.254;2022-11-15T00:10:21;12.53;;;9.50;;
4933;SDS011;2482;49.154;8.254;2022-11-15T00:12:50;11.37;;;9.37;;
4933;SDS011;2482;49.154;8.254;2022-11-15T00:15:20;12.40;;;8.57;;
4933;SDS011;2482;49.154;8.254;2022-11-15T00:17:48;10.17;;;8.77;;
4933;SDS011;2482;49.154;8.254;2022-11-15T00:20:17;12.40;;;8.70;;
4933;SDS011;2482;49.154;8.254;2022-11-15T00:22:47;11.13;;;9.33;;
4933;SDS011;2482;49.154;8.254;2022-11-15T00:25:18;11.70;;;9.13;;
4933;SDS011;2482;49.154;8.254;2022-11-15T00:27:54;11.63;;;8.60;;
4933;SDS011;2482;49.154;8.254;2022-11-15T00:30:24;11.93;;;7.90;;
4933;SDS011;2482;49.154;8.254;2022-11-15T00:32:53;10.63;;;8.23;;
4933;SDS011;2482;49.154;8.254;2022-11-15T00:35:23;10.63;;;8.40;;
4933;SDS011;2482;49.154;8.254;2022-11-15T00:37:51;9.63;;;8.30;;
4933;SDS011;2482;49.154;8.254;2022-11-15T00:40:24;10.10;;;7.80;;
4933;SDS011;2482;49.154;8.254;2022-11-15T00:42:55;11.33;;;7.83;;
4933;SDS011;2482;49.154;8.254;2022-11-15T00:45:24;12.30;;;8.20;;
4933;SDS011;2482;49.154;8.254;2022-11-15T00:47:53;10.70;;;8.60;;
4933;SDS011;2482;49.154;8.254;2022-11-15T00:50:21;9.67;;;7.60;;
4933;SDS011;2482;49.154;8.254;2022-11-15T00:52:52;10.60;;;8.10;;
4933;SDS011;2482;49.154;8.254;2022-11-15T00:55:23;10.53;;;7.70;;
4933;SDS011;2482;49.154;8.254;2022-11-15T00:57:56;9.17;;;7.70;;
4933;SDS011;2482;49.154;8.254;2022-11-15T01:00:28;12.00;;;7.40;;
4933;SDS011;2482;49.154;8.254;2022-11-15T01:02:56;12.30;;;7.03;;
4933;SDS011;2482;49.154;8.254;2022-11-15T01:05:27;8.33;;;7.27;;
4933;SDS011;2482;49.154;8.254;2022-11-15T01:07:58;8.70;;;7.30;;
4933;SDS011;2482;49.154;8.254;2022-11-15T01:10:30;9.40;;;7.50;;
4933;SDS011;2482;49.154;8.254;2022-11-15T01:12:59;8.27;;;6.90;;
4933;SDS011;2482;49.154;8.254;2022-11-15T01:15:30;10.00;;;7.83;;
4933;SDS011;2482;49.154;8.254;2022-11-15T01:18:00;10.00;;;7.83;;
4933;SDS011;2482;49.154;8.254;2022-11-15T01:20:30;9.87;;;7.50;;
4933;SDS011;2482;49.154;8.254;2022-11-15T01:23:09;9.77;;;7.90;;
4933;SDS011;2482;49.154;8.254;2022-11-15T01:25:38;11.40;;;7.77;;
4933;SDS011;2482;49.154;8.254;2022-11-15T01:28:06;10.63;;;6.50;;
4933;SDS011;2482;49.154;8.254;2022-11-15T01:30:35;11.30;;;7.53;;
4933;SDS011;2482;49.154;8.254;2022-11-15T01:33:11;11.60;;;7.53;;
4933;SDS011;2482;49.154;8.254;2022-11-15T01:35:40;13.73;;;8.33;;
4933;SDS011;2482;49.154;8.254;2022-11-15T01:38:08;8.93;;;7.13;;
4933;SDS011;2482;49.154;8.254;2022-11-15T01:40:36;8.40;;;6.73;;
4933;SDS011;2482;49.154;8.254;2022-11-15T01:43:25;10.40;;;7.37;;
4933;SDS011;2482;49.154;8.254;2022-11-15T01:48:57;10.67;;;7.60;;
4933;SDS011;2482;49.154;8.254;2022-11-15T01:51:35;11.97;;;7.70;;
4933;SDS011;2482;49.154;8.254;2022-11-15T01:54:10;11.33;;;8.03;;
4933;SDS011;2482;49.154;8.254;2022-11-15T01:56:48;12.17;;;8.50;;
4933;SDS011;2482;49.154;8.254;2022-11-15T01:59:33;12.40;;;7.83;;
4933;SDS011;2482;49.154;8.254;2022-11-15T02:02:03;9.67;;;7.30;;
4933;SDS011;2482;49.154;8.254;2022-11-15T02:04:32;11.90;;;7.50;;
4933;SDS011;2482;49.154;8.254;2022-11-15T02:07:04;8.53;;;7.20;;
4933;SDS011;2482;49.154;8.254;2022-11-15T02:09:45;9.20;;;6.90;;
4933;SDS011;2482;49.154;8.254;2022-11-15T02:12:19;8.80;;;6.57;;
4933;SDS011;2482;49.154;8.254;2022-11-15T02:14:51;10.17;;;7.23;;
4933;SDS011;2482;49.154;8.254;2022-11-15T02:20:47;8.70;;;6.90;;
4933;SDS011;2482;49.154;8.254;2022-11-15T02:33:35;8.00;;;6.63;;
4933;SDS011;2482;49.154;8.254;2022-11-15T02:36:18;10.03;;;7.13;;
4933;SDS011;2482;49.154;8.254;2022-11-15T02:42:02;11.77;;;7.60;;
4933;SDS011;2482;49.154;8.254;2022-11-15T02:45:03;12.20;;;7.07;;
4933;SDS011;2482;49.154;8.254;2022-11-15T02:47:39;8.47;;;6.47;;
4933;SDS011;2482;49.154;8.254;2022-11-15T02:50:16;8.40;;;6.20;;
4933;SDS011;2482;49.154;8.254;2022-11-15T02:52:54;11.20;;;7.00;;
4933;SDS011;2482;49.154;8.254;2022-11-15T02:55:35;8.77;;;7.17;;
4933;SDS011;2482;49.154;8.254;2022-11-15T03:04:43;12.00;;;9.53;;
4933;SDS011;2482;49.154;8.254;2022-11-15T03:07:30;10.63;;;8.80;;
4933;SDS011;2482;49.154;8.254;2022-11-15T03:10:13;10.33;;;8.10;;
4933;SDS011;2482;49.154;8.254;2022-11-15T03:13:21;9.97;;;8.23;;
4933;SDS011;2482;49.154;8.254;2022-11-15T03:16:29;16.43;;;8.20;;
4933;SDS011;2482;49.154;8.254;2022-11-15T03:19:33;8.83;;;7.30;;
4933;SDS011;2482;49.154;8.254;2022-11-15T03:22:08;11.27;;;7.70;;
4933;SDS011;2482;49.154;8.254;2022-11-15T03:24:51;9.30;;;7.40;;
4933;SDS011;2482;49.154;8.254;2022-11-15T03:27:25;10.07;;;7.57;;
4933;SDS011;2482;49.154;8.254;2022-11-15T03:30:04;9.50;;;7.57;;
4933;SDS011;2482;49.154;8.254;2022-11-15T03:32:39;11.70;;;7.70;;
4933;SDS011;2482;49.154;8.254;2022-11-15T03:35:30;12.47;;;8.13;;
4933;SDS011;2482;49.154;8.254;2022-11-15T03:38:29;8.20;;;6.87;;
4933;SDS011;2482;49.154;8.254;2022-11-15T03:41:05;10.03;;;7.70;;
4933;SDS011;2482;49.154;8.254;2022-11-15T03:46:47;10.17;;;7.80;;
4933;SDS011;2482;49.154;8.254;2022-11-15T03:49:32;10.43;;;8.00;;
4933;SDS011;2482;49.154;8.254;2022-11-15T03:52:05;9.83;;;7.90;;
4933;SDS011;2482;49.154;8.254;2022-11-15T03:54:47;11.07;;;8.00;;
4933;SDS011;2482;49.154;8.254;2022-11-15T03:57:17;11.70;;;7.90;;
4933;SDS011;2482;49.154;8.254;2022-11-15T03:59:48;9.30;;;7.40;;
4933;SDS011;2482;49.154;8.254;2022-11-15T04:02:17;9.53;;;7.10;;
4933;SDS011;2482;49.154;8.254;2022-11-15T04:04:51;13.83;;;8.30;;
4933;SDS011;2482;49.154;8.254;2022-11-15T04:07:19;9.83;;;6.83;;
4933;SDS011;2482;49.154;8.254;2022-11-15T04:09:48;8.23;;;7.43;;
4933;SDS011;2482;49.154;8.254;2022-11-15T04:12:30;9.20;;;7.30;;
4933;SDS011;2482;49.154;8.254;2022-11-15T04:15:18;7.00;;;6.30;;
4933;SDS011;2482;49.154;8.254;2022-11-15T04:17:53;8.37;;;6.80;;
4933;SDS011;2482;49.154;8.254;2022-11-15T04:20:30;7.47;;;6.00;;
4933;SDS011;2482;49.154;8.254;2022-11-15T04:23:20;7.20;;;6.00;;
4933;SDS011;2482;49.154;8.254;2022-11-15T04:26:12;11.27;;;6.70;;
4933;SDS011;2482;49.154;8.254;2022-11-15T04:28:48;6.70;;;5.80;;
4933;SDS011;2482;49.154;8.254;2022-11-15T04:31:47;8.20;;;6.00;;
4933;SDS011;2482;49.154;8.254;2022-11-15T04:34:21;7.33;;;5.90;;
4933;SDS011;2482;49.154;8.254;2022-11-15T04:36:58;8.60;;;7.00;;
4933;SDS011;2482;49.154;8.254;2022-11-15T04:39:42;8.40;;;6.17;;
4933;SDS011;2482;49.154;8.254;2022-11-15T04:42:12;8.60;;;6.10;;
4933;SDS011;2482;49.154;8.254;2022-11-15T04:44:42;8.03;;;6.20;;
4933;SDS011;2482;49.154;8.254;2022-11-15T04:47:11;7.60;;;6.30;;
4933;SDS011;2482;49.154;8.254;2022-11-15T04:49:48;8.37;;;7.20;;
4933;SDS011;2482;49.154;8.254;2022-11-15T04:52:20;7.77;;;6.47;;
4933;SDS011;2482;49.154;8.254;2022-11-15T04:54:48;13.00;;;6.87;;
4933;SDS011;2482;49.154;8.254;2022-11-15T04:57:20;7.07;;;6.30;;
4933;SDS011;2482;49.154;8.254;2022-11-15T04:59:48;7.00;;;5.77;;
4933;SDS011;2482;49.154;8.254;2022-11-15T05:02:19;8.67;;;6.00;;
4933;SDS011;2482;49.154;8.254;2022-11-15T05:04:51;7.07;;;6.37;;
4933;SDS011;2482;49.154;8.254;2022-11-15T05:07:23;6.90;;;6.20;;
4933;SDS011;2482;49.154;8.254;2022-11-15T05:09:55;9.30;;;6.67;;
4933;SDS011;2482;49.154;8.254;2022-11-15T05:12:24;8.00;;;7.00;;
4933;SDS011;2482;49.154;8.254;2022-11-15T05:14:52;6.70;;;6.10;;
4933;SDS011;2482;49.154;8.254;2022-11-15T05:17:20;9.63;;;6.83;;
4933;SDS011;2482;49.154;8.254;2022-11-15T05:19:53;7.50;;;6.70;;
4933;SDS011;2482;49.154;8.254;2022-11-15T05:22:26;7.57;;;6.77;;
4933;SDS011;2482;49.154;8.254;2022-11-15T05:24:55;9.57;;;7.73;;
4933;SDS011;2482;49.154;8.254;2022-11-15T05:27:25;8.50;;;7.20;;
4933;SDS011;2482;49.154;8.254;2022-11-15T05:29:56;9.70;;;7.60;;
4933;SDS011;2482;49.154;8.254;2022-11-15T05:32:24;8.37;;;6.80;;
4933;SDS011;2482;49.154;8.254;2022-11-15T05:34:52;10.53;;;8.50;;
4933;SDS011;2482;49.154;8.254;2022-11-15T05:37:29;8.60;;;6.90;;
4933;SDS011;2482;49.154;8.254;2022-11-15T05:39:57;9.63;;;7.43;;
4933;SDS011;2482;49.154;8.254;2022-11-15T05:42:30;9.50;;;7.43;;
4933;SDS011;2482;49.154;8.254;2022-11-15T05:45:01;8.20;;;7.30;;
4933;SDS011;2482;49.154;8.254;2022-11-15T05:47:38;15.63;;;7.33;;
4933;SDS011;2482;49.154;8.254;2022-11-15T05:50:11;10.10;;;7.80;;
4933;SDS011;2482;49.154;8.254;2022-11-15T05:52:41;9.70;;;7.10;;
4933;SDS011;2482;49.154;8.254;2022-11-15T05:55:11;9.27;;;7.33;;
4933;SDS011;2482;49.154;8.254;2022-11-15T05:57:46;7.80;;;7.00;;
4933;SDS011;2482;49.154;8.254;2022-11-15T06:00:20;10.60;;;7.13;;
4933;SDS011;2482;49.154;8.254;2022-11-15T06:02:48;8.63;;;7.73;;
4933;SDS011;2482;49.154;8.254;2022-11-15T06:05:17;10.50;;;7.80;;
4933;SDS011;2482;49.154;8.254;2022-11-15T06:07:45;13.10;;;8.07;;
4933;SDS011;2482;49.154;8.254;2022-11-15T06:10:14;10.20;;;7.30;;
4933;SDS011;2482;49.154;8.254;2022-11-15T06:12:45;11.20;;;9.70;;
4933;SDS011;2482;49.154;8.254;2022-11-15T06:15:34;11.27;;;8.53;;
4933;SDS011;2482;49.154;8.254;2022-11-15T06:18:07;10.30;;;7.50;;
4933;SDS011;2482;49.154;8.254;2022-11-15T06:20:38;11.30;;;7.47;;
4933;SDS011;2482;49.154;8.254;2022-11-15T06:23:13;10.10;;;7.53;;
4933;SDS011;2482;49.154;8.254;2022-11-15T06:25:44;9.30;;;7.43;;
4933;SDS011;2482;49.154;8.254;2022-11-15T06:28:15;12.53;;;7.33;;
4933;SDS011;2482;49.154;8.254;2022-11-15T06:30:43;12.23;;;7.47;;
4933;SDS011;2482;49.154;8.254;2022-11-15T06:33:21;12.73;;;8.80;;
4933;SDS011;2482;49.154;8.254;2022-11-15T06:35:59;12.87;;;8.27;;
4933;SDS011;2482;49.154;8.254;2022-11-15T06:38:41;7.80;;;6.97;;
4933;SDS011;2482;49.154;8.254;2022-11-15T06:41:13;10.33;;;7.57;;
4933;SDS011;2482;49.154;8.254;2022-11-15T06:43:43;10.17;;;7.80;;
4933;SDS011;2482;49.154;8.254;2022-11-15T06:46:15;11.33;;;7.43;;
4933;SDS011;2482;49.154;8.254;2022-11-15T06:48:51;13.37;;;8.20;;
4933;SDS011;2482;49.154;8.254;2022-11-15T06:51:23;7.87;;;6.97;;
4933;SDS011;2482;49.154;8.254;2022-11-15T06:53:51;8.53;;;7.40;;
4933;SDS011;2482;49.154;8.254;2022-11-15T06:56:25;7.70;;;6.87;;
4933;SDS011;2482;49.154;8.254;2022-11-15T06:58:55;7.60;;;6.70;;
4933;SDS011;2482;49.154;8.254;2022-11-15T07:01:26;8.80;;;6.90;;
4933;SDS011;2482;49.154;8.254;2022-11-15T07:03:57;8.70;;;7.10;;
4933;SDS011;2482;49.154;8.254;2022-11-15T07:06:30;10.47;;;6.50;;
4933;SDS011;2482;49.154;8.254;2022-11-15T07:09:04;8.23;;;6.50;;
4933;SDS011;2482;49.154;8.254;2022-11-15T07:11:36;8.40;;;7.50;;
4933;SDS011;2482;49.154;8.254;2022-11-15T07:14:15;6.97;;;6.27;;
4933;SDS011;2482;49.154;8.254;2022-11-15T07:16:46;10.73;;;6.80;;
4933;SDS011;2482;49.154;8.254;2022-11-15T07:19:16;7.67;;;6.87;;
4933;SDS011;2482;49.154;8.254;2022-11-15T07:21:45;9.87;;;6.83;;
4933;SDS011;2482;49.154;8.254;2022-11-15T07:24:14;12.57;;;6.30;;
4933;SDS011;2482;49.154;8.254;2022-11-15T07:26:44;7.67;;;6.87;;
4933;SDS011;2482;49.154;8.254;2022-11-15T07:29:15;9.03;;;6.27;;
4933;SDS011;2482;49.154;8.254;2022-11-15T07:31:48;8.73;;;5.93;;
4933;SDS011;2482;49.154;8.254;2022-11-15T07:34:20;8.77;;;6.80;;
4933;SDS011;2482;49.154;8.254;2022-11-15T07:36:50;8.40;;;6.60;;
4933;SDS011;2482;49.154;8.254;2022-11-15T07:39:18;11.03;;;6.80;;
4933;SDS011;2482;49.154;8.254;2022-11-15T07:41:48;7.80;;;6.60;;
4933;SDS011;2482;49.154;8.254;2022-11-15T07:44:37;15.97;;;7.40;;
4933;SDS011;2482;49.154;8.254;2022-11-15T07:47:09;6.90;;;6.20;;
4933;SDS011;2482;49.154;8.254;2022-11-15T07:49:42;8.00;;;6.90;;
4933;SDS011;2482;49.154;8.254;2022-11-15T07:52:12;8.27;;;6.83;;
4933;SDS011;2482;49.154;8.254;2022-11-15T07:54:43;12.97;;;9.47;;
4933;SDS011;2482;49.154;8.254;2022-11-15T07:57:12;11.40;;;9.07;;
4933;SDS011;2482;49.154;8.254;2022-11-15T07:59:46;17.97;;;14.83;;
4933;SDS011;2482;49.154;8.254;2022-11-15T08:02:18;13.43;;;11.20;;
4933;SDS011;2482;49.154;8.254;2022-11-15T08:04:46;17.17;;;12.53;;
4933;SDS011;2482;49.154;8.254;2022-11-15T08:07:16;19.57;;;13.10;;
4933;SDS011;2482;49.154;8.254;2022-11-15T08:09:45;18.87;;;13.73;;
4933;SDS011;2482;49.154;8.254;2022-11-15T08:12:16;13.40;;;10.57;;
4933;SDS011;2482;49.154;8.254;2022-11-15T08:14:45;10.53;;;9.03;;
4933;SDS011;2482;49.154;8.254;2022-11-15T08:17:19;9.73;;;7.93;;
4933;SDS011;2482;49.154;8.254;2022-11-15T08:19:59;10.53;;;7.50;;
4933;SDS011;2482;49.154;8.254;2022-11-15T08:22:28;9.30;;;8.40;;
4933;SDS011;2482;49.154;8.254;2022-11-15T08:24:56;9.77;;;7.50;;
4933;SDS011;2482;49.154;8.254;2022-11-15T08:27:24;8.70;;;7.07;;
4933;SDS011;2482;49.154;8.254;2022-11-15T08:29:55;9.43;;;8.10;;
4933;SDS011;2482;49.154;8.254;2022-11-15T08:32:25;8.90;;;7.30;;
4933;SDS011;2482;49.154;8.254;2022-11-15T08:34:56;10.47;;;7.53;;
4933;SDS011;2482;49.154;8.254;2022-11-15T08:37:24;9.33;;;7.63;;
4933;SDS011;2482;49.154;8.254;2022-11-15T08:39:56;10.33;;;7.00;;
4933;SDS011;2482;49.154;8.254;2022-11-15T08:42:26;9.77;;;7.57;;
4933;SDS011;2482;49.154;8.254;2022-11-15T08:44:55;7.47;;;6.67;;
4933;SDS011;2482;49.154;8.254;2022-11-15T08:47:23;7.83;;;7.10;;
4933;SDS011;2482;49.154;8.254;2022-11-15T08:49:51;8.33;;;6.90;;
4933;SDS011;2482;49.154;8.254;2022-11-15T08:52:22;9.00;;;6.70;;
4933;SDS011;2482;49.154;8.254;2022-11-15T08:54:50;9.63;;;6.77;;
4933;SDS011;2482;49.154;8.254;2022-11-15T08:57:22;10.43;;;6.90;;
4933;SDS011;2482;49.154;8.254;2022-11-15T08:59:58;7.93;;;6.17;;
4933;SDS011;2482;49.154;8.254;2022-11-15T09:02:33;8.33;;;6.20;;
4933;SDS011;2482;49.154;8.254;2022-11-15T09:05:02;7.27;;;5.90;;
4933;SDS011;2482;49.154;8.254;2022-11-15T09:07:30;7.27;;;5.83;;
4933;SDS011;2482;49.154;8.254;2022-11-15T09:10:01;9.87;;;5.40;;
4933;SDS011;2482;49.154;8.254;2022-11-15T09:12:30;8.10;;;5.30;;
4933;SDS011;2482;49.154;8.254;2022-11-15T09:14:58;7.40;;;5.47;;
4933;SDS011;2482;49.154;8.254;2022-11-15T09:17:29;6.07;;;5.13;;
4933;SDS011;2482;49.154;8.254;2022-11-15T09:20:00;5.00;;;4.50;;
4933;SDS011;2482;49.154;8.254;2022-11-15T09:22:33;5.77;;;4.63;;
4933;SDS011;2482;49.154;8.254;2022-11-15T09:25:23;6.40;;;4.73;;
4933;SDS011;2482;49.154;8.254;2022-11-15T09:28:03;5.80;;;4.40;;
4933;SDS011;2482;49.154;8.254;2022-11-15T09:30:36;5.33;;;4.70;;
4933;SDS011;2482;49.154;8.254;2022-11-15T09:33:08;5.63;;;4.70;;
4933;SDS011;2482;49.154;8.254;2022-11-15T09:35:38;7.90;;;4.60;;
4933;SDS011;2482;49.154;8.254;2022-11-15T09:38:09;6.27;;;4.63;;
4933;SDS011;2482;49.154;8.254;2022-11-15T09:40:40;5.43;;;4.50;;
4933;SDS011;2482;49.154;8.254;2022-11-15T09:43:24;6.77;;;5.10;;
4933;SDS011;2482;49.154;8.254;2022-11-15T09:49:27;10.00;;;6.17;;
4933;SDS011;2482;49.154;8.254;2022-11-15T09:52:01;6.27;;;4.70;;
4933;SDS011;2482;49.154;8.254;2022-11-15T09:54:34;8.07;;;5.93;;
4933;SDS011;2482;49.154;8.254;2022-11-15T10:03:18;9.90;;;5.93;;
4933;SDS011;2482;49.154;8.254;2022-11-15T10:06:04;9.93;;;6.03;;
4933;SDS011;2482;49.154;8.254;2022-11-15T10:08:45;6.70;;;5.57;;
4933;SDS011;2482;49.154;8.254;2022-11-15T10:11:40;7.80;;;5.17;;
4933;SDS011;2482;49.154;8.254;2022-11-15T10:14:16;6.90;;;5.30;;
4933;SDS011;2482;49.154;8.254;2022-11-15T10:22:50;10.93;;;5.30;;
4933;SDS011;2482;49.154;8.254;2022-11-15T10:25:22;5.87;;;5.27;;
4933;SDS011;2482;49.154;8.254;2022-11-15T10:27:58;5.50;;;5.00;;
4933;SDS011;2482;49.154;8.254;2022-11-15T10:30:55;6.50;;;5.10;;
4933;SDS011;2482;49.154;8.254;2022-11-15T10:33:32;6.93;;;5.10;;
4933;SDS011;2482;49.154;8.254;2022-11-15T10:41:18;7.73;;;5.00;;
4933;SDS011;2482;49.154;8.254;2022-11-15T10:49:58;6.60;;;5.17;;
4933;SDS011;2482;49.154;8.254;2022-11-15T10:52:34;9.10;;;5.23;;
4933;SDS011;2482;49.154;8.254;2022-11-15T10:57:48;9.37;;;5.10;;
4933;SDS011;2482;49.154;8.254;2022-11-15T11:00:31;7.50;;;4.53;;
4933;SDS011;2482;49.154;8.254;2022-11-15T11:06:06;8.10;;;5.03;;
4933;SDS011;2482;49.154;8.254;2022-11-15T11:11:45;11.20;;;5.23;;
4933;SDS011;2482;49.154;8.254;2022-11-15T11:14:24;7.53;;;4.30;;
4933;SDS011;2482;49.154;8.254;2022-11-15T11:25:21;7.40;;;6.57;;
4933;SDS011;2482;49.154;8.254;2022-11-15T11:34:08;5.27;;;4.77;;
4933;SDS011;2482;49.154;8.254;2022-11-15T11:37:39;8.33;;;4.30;;
4933;SDS011;2482;49.154;8.254;2022-11-15T11:40:14;6.70;;;4.30;;
4933;SDS011;2482;49.154;8.254;2022-11-15T11:43:09;5.87;;;4.10;;
4933;SDS011;2482;49.154;8.254;2022-11-15T11:46:34;4.90;;;4.20;;
4933;SDS011;2482;49.154;8.254;2022-11-15T11:49:28;6.30;;;3.90;;
4933;SDS011;2482;49.154;8.254;2022-11-15T11:55:10;3.60;;;3.30;;
4933;SDS011;2482;49.154;8.254;2022-11-15T11:57:56;5.77;;;3.60;;
4933;SDS011;2482;49.154;8.254;2022-11-15T12:04:21;5.20;;;4.67;;
4933;SDS011;2482;49.154;8.254;2022-11-15T12:09:51;6.20;;;3.93;;
4933;SDS011;2482;49.154;8.254;2022-11-15T12:15:56;11.80;;;4.13;;
4933;SDS011;2482;49.154;8.254;2022-11-15T12:18:36;5.27;;;3.80;;
4933;SDS011;2482;49.154;8.254;2022-11-15T12:23:55;7.20;;;5.70;;
4933;SDS011;2482;49.154;8.254;2022-11-15T12:26:45;6.10;;;4.77;;
4933;SDS011;2482;49.154;8.254;2022-11-15T12:29:31;4.67;;;3.60;;
4933;SDS011;2482;49.154;8.254;2022-11-15T12:35:01;5.20;;;2.90;;
4933;SDS011;2482;49.154;8.254;2022-11-15T12:40:26;2.80;;;2.60;;
4933;SDS011;2482;49.154;8.254;2022-11-15T12:43:04;5.37;;;3.03;;
4933;SDS011;2482;49.154;8.254;2022-11-15T12:46:13;6.00;;;3.33;;
4933;SDS011;2482;49.154;8.254;2022-11-15T12:49:08;3.70;;;3.30;;
4933;SDS011;2482;49.154;8.254;2022-11-15T12:59:57;4.50;;;2.97;;
4933;SDS011;2482;49.154;8.254;2022-11-15T13:02:40;4.63;;;3.07;;
4933;SDS011;2482;49.154;8.254;2022-11-15T13:05:52;4.20;;;3.07;;
4933;SDS011;2482;49.154;8.254;2022-11-15T13:08:36;6.50;;;2.80;;
4933;SDS011;2482;49.154;8.254;2022-11-15T13:34:03;6.10;;;3.87;;
4933;SDS011;2482;49.154;8.254;2022-11-15T13:37:27;4.80;;;4.30;;
4933;SDS011;2482;49.154;8.254;2022-11-15T13:40:15;6.20;;;4.40;;
4933;SDS011;2482;49.154;8.254;2022-11-15T13:42:51;6.10;;;3.90;;
4933;SDS011;2482;49.154;8.254;2022-11-15T13:45:21;5.90;;;3.37;;
4933;SDS011;2482;49.154;8.254;2022-11-15T13:47:56;4.33;;;3.00;;
4933;SDS011;2482;49.154;8.254;2022-11-15T13:50:31;3.60;;;3.30;;
4933;SDS011;2482;49.154;8.254;2022-11-15T13:53:05;4.90;;;3.90;;
4933;SDS011;2482;49.154;8.254;2022-11-15T13:55:37;8.07;;;4.20;;
4933;SDS011;2482;49.154;8.254;2022-11-15T13:58:08;7.67;;;4.17;;
4933;SDS011;2482;49.154;8.254;2022-11-15T14:00:46;7.17;;;3.60;;
4933;SDS011;2482;49.154;8.254;2022-11-15T14:03:39;5.40;;;4.30;;
4933;SDS011;2482;49.154;8.254;2022-11-15T14:06:19;7.33;;;4.23;;
4933;SDS011;2482;49.154;8.254;2022-11-15T14:09:14;6.67;;;4.23;;
4933;SDS011;2482;49.154;8.254;2022-11-15T14:15:17;6.13;;;4.10;;
4933;SDS011;2482;49.154;8.254;2022-11-15T14:17:58;5.10;;;3.40;;
4933;SDS011;2482;49.154;8.254;2022-11-15T14:20:31;11.07;;;3.77;;
4933;SDS011;2482;49.154;8.254;2022-11-15T14:23:19;5.60;;;3.93;;
4933;SDS011;2482;49.154;8.254;2022-11-15T14:25:54;7.17;;;4.10;;
4933;SDS011;2482;49.154;8.254;2022-11-15T14:30:55;3.73;;;3.30;;
4933;SDS011;2482;49.154;8.254;2022-11-15T14:36:21;7.63;;;3.97;;
4933;SDS011;2482;49.154;8.254;2022-11-15T14:38:49;5.80;;;3.67;;
4933;SDS011;2482;49.154;8.254;2022-11-15T14:41:24;4.60;;;4.00;;
4933;SDS011;2482;49.154;8.254;2022-11-15T14:44:09;6.80;;;3.70;;
4933;SDS011;2482;49.154;8.254;2022-11-15T14:46:45;7.60;;;4.20;;
4933;SDS011;2482;49.154;8.254;2022-11-15T14:49:27;10.50;;;3.77;;
4933;SDS011;2482;49.154;8.254;2022-11-15T14:51:58;4.53;;;3.50;;
4933;SDS011;2482;49.154;8.254;2022-11-15T14:54:26;4.80;;;3.67;;
4933;SDS011;2482;49.154;8.254;2022-11-15T14:56:54;4.87;;;3.90;;
4933;SDS011;2482;49.154;8.254;2022-11-15T14:59:23;4.40;;;3.13;;
4933;SDS011;2482;49.154;8.254;2022-11-15T15:01:56;6.30;;;3.10;;
4933;SDS011;2482;49.154;8.254;2022-11-15T15:04:26;4.00;;;3.60;;
4933;SDS011;2482;49.154;8.254;2022-11-15T15:06:54;3.97;;;3.47;;
4933;SDS011;2482;49.154;8.254;2022-11-15T15:09:23;5.37;;;3.50;;
4933;SDS011;2482;49.154;8.254;2022-11-15T15:11:51;4.50;;;3.40;;
4933;SDS011;2482;49.154;8.254;2022-11-15T15:14:28;4.90;;;3.50;;
4933;SDS011;2482;49.154;8.254;2022-11-15T15:16:56;5.90;;;3.63;;
4933;SDS011;2482;49.154;8.254;2022-11-15T15:19:26;4.03;;;3.50;;
4933;SDS011;2482;49.154;8.254;2022-11-15T15:22:03;6.23;;;3.30;;
4933;SDS011;2482;49.154;8.254;2022-11-15T15:24:35;6.53;;;3.70;;
4933;SDS011;2482;49.154;8.254;2022-11-15T15:27:06;5.87;;;3.63;;
4933;SDS011;2482;49.154;8.254;2022-11-15T15:29:35;3.93;;;3.53;;
4933;SDS011;2482;49.154;8.254;2022-11-15T15:32:05;5.30;;;3.60;;
4933;SDS011;2482;49.154;8.254;2022-11-15T15:34:38;2.97;;;2.77;;
4933;SDS011;2482;49.154;8.254;2022-11-15T15:37:19;5.33;;;3.30;;
4933;SDS011;2482;49.154;8.254;2022-11-15T15:39:56;7.57;;;3.90;;
4933;SDS011;2482;49.154;8.254;2022-11-15T15:42:24;4.63;;;3.80;;
4933;SDS011;2482;49.154;8.254;2022-11-15T15:44:55;5.47;;;3.53;;
4933;SDS011;2482;49.154;8.254;2022-11-15T15:47:26;4.03;;;2.80;;
4933;SDS011;2482;49.154;8.254;2022-11-15T15:49:58;5.43;;;3.30;;
4933;SDS011;2482;49.154;8.254;2022-11-15T15:52:26;5.27;;;3.57;;
4933;SDS011;2482;49.154;8.254;2022-11-15T15:54:59;5.40;;;3.60;;
4933;SDS011;2482;49.154;8.254;2022-11-15T15:57:37;9.43;;;4.13;;
4933;SDS011;2482;49.154;8.254;2022-11-15T16:00:08;5.47;;;4.43;;
4933;SDS011;2482;49.154;8.254;2022-11-15T16:02:42;5.03;;;4.10;;
4933;SDS011;2482;49.154;8.254;2022-11-15T16:05:14;4.80;;;4.30;;
4933;SDS011;2482;49.154;8.254;2022-11-15T16:07:42;5.80;;;4.23;;
4933;SDS011;2482;49.154;8.254;2022-11-15T16:10:25;5.90;;;3.93;;
4933;SDS011;2482;49.154;8.254;2022-11-15T16:13:00;6.20;;;4.10;;
4933;SDS011;2482;49.154;8.254;2022-11-15T16:15:35;5.03;;;3.83;;
4933;SDS011;2482;49.154;8.254;2022-11-15T16:18:06;4.70;;;4.10;;
4933;SDS011;2482;49.154;8.254;2022-11-15T16:20:45;6.80;;;5.00;;
4933;SDS011;2482;49.154;8.254;2022-11-15T16:23:26;6.80;;;5.50;;
4933;SDS011;2482;49.154;8.254;2022-11-15T16:26:00;8.10;;;5.57;;
4933;SDS011;2482;49.154;8.254;2022-11-15T16:28:33;8.00;;;5.17;;
4933;SDS011;2482;49.154;8.254;2022-11-15T16:31:03;6.33;;;4.73;;
4933;SDS011;2482;49.154;8.254;2022-11-15T16:33:43;6.97;;;4.17;;
4933;SDS011;2482;49.154;8.254;2022-11-15T16:36:17;5.60;;;4.17;;
4933;SDS011;2482;49.154;8.254;2022-11-15T16:38:58;6.80;;;4.17;;
4933;SDS011;2482;49.154;8.254;2022-11-15T16:41:31;5.80;;;4.77;;
4933;SDS011;2482;49.154;8.254;2022-11-15T16:44:06;7.37;;;4.83;;
4933;SDS011;2482;49.154;8.254;2022-11-15T16:46:45;9.20;;;5.40;;
4933;SDS011;2482;49.154;8.254;2022-11-15T16:49:20;8.70;;;6.53;;
4933;SDS011;2482;49.154;8.254;2022-11-15T16:51:52;10.20;;;6.60;;
4933;SDS011;2482;49.154;8.254;2022-11-15T16:54:20;5.97;;;4.90;;
4933;SDS011;2482;49.154;8.254;2022-11-15T16:56:48;5.83;;;4.73;;
4933;SDS011;2482;49.154;8.254;2022-11-15T16:59:19;7.53;;;5.33;;
4933;SDS011;2482;49.154;8.254;2022-11-15T17:01:50;6.00;;;4.53;;
4933;SDS011;2482;49.154;8.254;2022-11-15T17:04:18;5.10;;;4.30;;
4933;SDS011;2482;49.154;8.254;2022-11-15T17:06:48;15.03;;;6.30;;
4933;SDS011;2482;49.154;8.254;2022-11-15T17:09:22;8.13;;;6.57;;
4933;SDS011;2482;49.154;8.254;2022-11-15T17:11:54;12.60;;;7.00;;
4933;SDS011;2482;49.154;8.254;2022-11-15T17:14:22;7.20;;;6.43;;
4933;SDS011;2482;49.154;8.254;2022-11-15T17:16:50;7.87;;;6.60;;
4933;SDS011;2482;49.154;8.254;2022-11-15T17:19:28;10.40;;;6.30;;
4933;SDS011;2482;49.154;8.254;2022-11-15T17:21:56;7.13;;;5.47;;
4933;SDS011;2482;49.154;8.254;2022-11-15T17:24:30;7.93;;;5.87;;
4933;SDS011;2482;49.154;8.254;2022-11-15T17:26:58;7.93;;;5.80;;
4933;SDS011;2482;49.154;8.254;2022-11-15T17:29:32;7.50;;;6.13;;
4933;SDS011;2482;49.154;8.254;2022-11-15T17:32:02;7.00;;;5.63;;
4933;SDS011;2482;49.154;8.254;2022-11-15T17:34:30;9.30;;;5.77;;
4933;SDS011;2482;49.154;8.254;2022-11-15T17:37:03;6.00;;;5.10;;
4933;SDS011;2482;49.154;8.254;2022-11-15T17:39:31;4.60;;;4.20;;
4933;SDS011;2482;49.154;8.254;2022-11-15T17:41:59;8.23;;;5.47;;
4933;SDS011;2482;49.154;8.254;2022-11-15T17:44:30;6.00;;;4.67;;
4933;SDS011;2482;49.154;8.254;2022-11-15T17:47:01;6.10;;;4.60;;
4933;SDS011;2482;49.154;8.254;2022-11-15T17:49:38;5.60;;;4.40;;
4933;SDS011;2482;49.154;8.254;2022-11-15T17:52:11;6.30;;;5.03;;
4933;SDS011;2482;49.154;8.254;2022-11-15T17:54:39;7.17;;;4.97;;
4933;SDS011;2482;49.154;8.254;2022-11-15T17:57:08;6.97;;;4.90;;
4933;SDS011;2482;49.154;8.254;2022-11-15T17:59:36;5.70;;;4.57;;
4933;SDS011;2482;49.154;8.254;2022-11-15T18:02:08;7.43;;;5.47;;
4933;SDS011;2482;49.154;8.254;2022-11-15T18:04:39;9.30;;;5.77;;
4933;SDS011;2482;49.154;8.254;2022-11-15T18:07:10;8.20;;;5.33;;
4933;SDS011;2482;49.154;8.254;2022-11-15T18:09:42;8.90;;;6.00;;
4933;SDS011;2482;49.154;8.254;2022-11-15T18:12:12;9.50;;;5.77;;
4933;SDS011;2482;49.154;8.254;2022-11-15T18:14:41;8.17;;;5.80;;
4933;SDS011;2482;49.154;8.254;2022-11-15T18:17:12;8.63;;;5.00;;